sensor_id;sensor_type;location;lat;lon;timestamp;P1;durP1;ratioP1;P2;durP2;ratioP2
36009;SDS011;22076;52.182;5.404;2023-06-22T00:01:10;7.07;;;4.90;;
36009;SDS011;22076;52.182;5.404;2023-06-22T00:03:37;9.27;;;5.72;;
36009;SDS011;22076;52.182;5.404;2023-06-22T00:06:03;8.02;;;5.05;;
36009;SDS011;22076;52.182;5.404;2023-06-22T00:08:30;6.55;;;4.15;;
36009;SDS011;22076;52.182;5.404;2023-06-22T00:10:58;6.75;;;4.80;;
36009;SDS011;22076;52.182;5.404;2023-06-22T00:13:31;8.13;;;5.65;;
36009;SDS011;22076;52.182;5.404;2023-06-22T00:15:57;7.80;;;5.63;;
36009;SDS011;22076;52.182;5.404;2023-06-22T00:18:24;6.25;;;4.50;;
36009;SDS011;22076;52.182;5.404;2023-06-22T00:20:53;5.63;;;4.47;;
36009;SDS011;22076;52.182;5.404;2023-06-22T00:23:22;7.30;;;4.55;;
36009;SDS011;22076;52.182;5.404;2023-06-22T00:25:49;8.70;;;5.13;;
36009;SDS011;22076;52.182;5.404;2023-06-22T00:28:17;6.75;;;4.85;;
36009;SDS011;22076;52.182;5.404;2023-06-22T00:30:44;5.63;;;4.32;;
36009;SDS011;22076;52.182;5.404;2023-06-22T00:33:11;8.05;;;4.60;;
36009;SDS011;22076;52.182;5.404;2023-06-22T00:35:37;7.93;;;4.60;;
36009;SDS011;22076;52.182;5.404;2023-06-22T00:38:06;6.38;;;4.95;;
36009;SDS011;22076;52.182;5.404;2023-06-22T00:40:33;8.43;;;5.20;;
36009;SDS011;22076;52.182;5.404;2023-06-22T00:43:00;9.23;;;6.38;;
36009;SDS011;22076;52.182;5.404;2023-06-22T00:45:28;7.35;;;5.43;;
36009;SDS011;22076;52.182;5.404;2023-06-22T00:47:56;7.47;;;5.10;;
36009;SDS011;22076;52.182;5.404;2023-06-22T00:50:24;7.28;;;5.05;;
36009;SDS011;22076;52.182;5.404;2023-06-22T00:52:52;7.45;;;4.50;;
36009;SDS011;22076;52.182;5.404;2023-06-22T00:55:21;5.82;;;4.75;;
36009;SDS011;22076;52.182;5.404;2023-06-22T00:57:49;5.47;;;4.00;;
36009;SDS011;22076;52.182;5.404;2023-06-22T01:00:21;6.28;;;4.78;;
36009;SDS011;22076;52.182;5.404;2023-06-22T01:02:51;5.50;;;4.53;;
36009;SDS011;22076;52.182;5.404;2023-06-22T01:05:19;6.47;;;4.22;;
36009;SDS011;22076;52.182;5.404;2023-06-22T01:07:49;9.10;;;4.82;;
36009;SDS011;22076;52.182;5.404;2023-06-22T01:10:24;7.10;;;4.95;;
36009;SDS011;22076;52.182;5.404;2023-06-22T01:12:55;6.68;;;4.60;;
36009;SDS011;22076;52.182;5.404;2023-06-22T01:15:28;6.82;;;4.78;;
36009;SDS011;22076;52.182;5.404;2023-06-22T01:17:59;6.97;;;4.75;;
36009;SDS011;22076;52.182;5.404;2023-06-22T01:20:26;10.65;;;7.15;;
36009;SDS011;22076;52.182;5.404;2023-06-22T01:22:58;10.15;;;6.75;;
36009;SDS011;22076;52.182;5.404;2023-06-22T01:25:33;6.78;;;4.85;;
36009;SDS011;22076;52.182;5.404;2023-06-22T01:28:05;9.05;;;6.47;;
36009;SDS011;22076;52.182;5.404;2023-06-22T01:30:43;9.38;;;6.57;;
36009;SDS011;22076;52.182;5.404;2023-06-22T01:33:12;9.15;;;6.63;;
36009;SDS011;22076;52.182;5.404;2023-06-22T01:35:39;6.93;;;5.50;;
36009;SDS011;22076;52.182;5.404;2023-06-22T01:38:06;7.55;;;5.93;;
36009;SDS011;22076;52.182;5.404;2023-06-22T01:40:35;9.57;;;6.55;;
36009;SDS011;22076;52.182;5.404;2023-06-22T01:43:02;9.45;;;7.25;;
36009;SDS011;22076;52.182;5.404;2023-06-22T01:45:29;9.88;;;6.57;;
36009;SDS011;22076;52.182;5.404;2023-06-22T01:47:57;8.90;;;7.05;;
36009;SDS011;22076;52.182;5.404;2023-06-22T01:50:24;10.35;;;7.25;;
36009;SDS011;22076;52.182;5.404;2023-06-22T01:52:51;8.98;;;6.60;;
36009;SDS011;22076;52.182;5.404;2023-06-22T01:55:18;10.25;;;7.75;;
36009;SDS011;22076;52.182;5.404;2023-06-22T01:57:44;12.10;;;7.22;;
36009;SDS011;22076;52.182;5.404;2023-06-22T02:00:11;12.07;;;8.20;;
36009;SDS011;22076;52.182;5.404;2023-06-22T02:02:41;10.07;;;7.82;;
36009;SDS011;22076;52.182;5.404;2023-06-22T02:05:11;16.20;;;11.13;;
36009;SDS011;22076;52.182;5.404;2023-06-22T02:07:39;12.18;;;8.50;;
36009;SDS011;22076;52.182;5.404;2023-06-22T02:10:08;12.20;;;6.93;;
36009;SDS011;22076;52.182;5.404;2023-06-22T02:12:37;12.50;;;8.18;;
36009;SDS011;22076;52.182;5.404;2023-06-22T02:15:05;9.18;;;6.20;;
36009;SDS011;22076;52.182;5.404;2023-06-22T02:17:32;11.77;;;8.88;;
36009;SDS011;22076;52.182;5.404;2023-06-22T02:20:00;8.68;;;6.60;;
36009;SDS011;22076;52.182;5.404;2023-06-22T02:22:29;12.65;;;8.93;;
36009;SDS011;22076;52.182;5.404;2023-06-22T02:24:56;12.15;;;8.38;;
36009;SDS011;22076;52.182;5.404;2023-06-22T02:27:23;14.23;;;9.80;;
36009;SDS011;22076;52.182;5.404;2023-06-22T02:29:50;13.57;;;8.23;;
36009;SDS011;22076;52.182;5.404;2023-06-22T02:32:16;10.68;;;6.97;;
36009;SDS011;22076;52.182;5.404;2023-06-22T02:34:43;9.02;;;7.10;;
36009;SDS011;22076;52.182;5.404;2023-06-22T02:37:12;15.20;;;8.63;;
36009;SDS011;22076;52.182;5.404;2023-06-22T02:39:41;8.30;;;6.57;;
36009;SDS011;22076;52.182;5.404;2023-06-22T02:42:08;11.27;;;7.35;;
36009;SDS011;22076;52.182;5.404;2023-06-22T02:44:36;9.70;;;6.45;;
36009;SDS011;22076;52.182;5.404;2023-06-22T02:47:03;14.48;;;8.98;;
36009;SDS011;22076;52.182;5.404;2023-06-22T02:49:30;9.65;;;7.03;;
36009;SDS011;22076;52.182;5.404;2023-06-22T02:51:57;10.88;;;7.40;;
36009;SDS011;22076;52.182;5.404;2023-06-22T02:54:23;10.65;;;6.47;;
36009;SDS011;22076;52.182;5.404;2023-06-22T02:56:51;8.57;;;6.10;;
36009;SDS011;22076;52.182;5.404;2023-06-22T02:59:18;11.13;;;6.95;;
36009;SDS011;22076;52.182;5.404;2023-06-22T03:01:48;10.32;;;7.50;;
36009;SDS011;22076;52.182;5.404;2023-06-22T03:04:15;14.80;;;7.50;;
36009;SDS011;22076;52.182;5.404;2023-06-22T03:06:42;7.88;;;6.10;;
36009;SDS011;22076;52.182;5.404;2023-06-22T03:09:08;10.82;;;6.80;;
36009;SDS011;22076;52.182;5.404;2023-06-22T03:11:36;11.25;;;6.57;;
36009;SDS011;22076;52.182;5.404;2023-06-22T03:14:04;12.25;;;7.85;;
36009;SDS011;22076;52.182;5.404;2023-06-22T03:16:30;9.82;;;7.28;;
36009;SDS011;22076;52.182;5.404;2023-06-22T03:18:58;18.83;;;10.73;;
36009;SDS011;22076;52.182;5.404;2023-06-22T03:21:26;10.00;;;7.63;;
36009;SDS011;22076;52.182;5.404;2023-06-22T03:23:54;10.50;;;7.75;;
36009;SDS011;22076;52.182;5.404;2023-06-22T03:26:20;11.45;;;8.02;;
36009;SDS011;22076;52.182;5.404;2023-06-22T03:28:48;10.30;;;7.25;;
36009;SDS011;22076;52.182;5.404;2023-06-22T03:31:16;9.88;;;7.35;;
36009;SDS011;22076;52.182;5.404;2023-06-22T03:33:46;9.73;;;7.30;;
36009;SDS011;22076;52.182;5.404;2023-06-22T03:36:13;10.52;;;7.68;;
36009;SDS011;22076;52.182;5.404;2023-06-22T03:38:41;18.35;;;12.57;;
36009;SDS011;22076;52.182;5.404;2023-06-22T03:41:08;9.35;;;7.82;;
36009;SDS011;22076;52.182;5.404;2023-06-22T03:43:34;9.57;;;7.22;;
36009;SDS011;22076;52.182;5.404;2023-06-22T03:46:01;10.02;;;7.57;;
36009;SDS011;22076;52.182;5.404;2023-06-22T03:48:29;14.30;;;9.60;;
36009;SDS011;22076;52.182;5.404;2023-06-22T03:50:55;9.27;;;7.20;;
36009;SDS011;22076;52.182;5.404;2023-06-22T03:53:26;11.48;;;9.15;;
36009;SDS011;22076;52.182;5.404;2023-06-22T03:55:53;9.93;;;6.88;;
36009;SDS011;22076;52.182;5.404;2023-06-22T03:58:20;10.63;;;7.78;;
36009;SDS011;22076;52.182;5.404;2023-06-22T04:00:47;14.43;;;10.15;;
36009;SDS011;22076;52.182;5.404;2023-06-22T04:03:14;13.63;;;8.60;;
36009;SDS011;22076;52.182;5.404;2023-06-22T04:05:42;15.00;;;9.65;;
36009;SDS011;22076;52.182;5.404;2023-06-22T04:08:08;14.43;;;8.38;;
36009;SDS011;22076;52.182;5.404;2023-06-22T04:10:35;12.05;;;8.00;;
36009;SDS011;22076;52.182;5.404;2023-06-22T04:13:02;10.85;;;8.10;;
36009;SDS011;22076;52.182;5.404;2023-06-22T04:15:28;10.63;;;7.63;;
36009;SDS011;22076;52.182;5.404;2023-06-22T04:17:55;13.93;;;7.53;;
36009;SDS011;22076;52.182;5.404;2023-06-22T04:20:22;16.73;;;11.90;;
36009;SDS011;22076;52.182;5.404;2023-06-22T04:22:52;17.33;;;12.55;;
36009;SDS011;22076;52.182;5.404;2023-06-22T04:25:19;18.80;;;13.05;;
36009;SDS011;22076;52.182;5.404;2023-06-22T04:27:46;22.13;;;13.05;;
36009;SDS011;22076;52.182;5.404;2023-06-22T04:30:12;14.38;;;9.27;;
36009;SDS011;22076;52.182;5.404;2023-06-22T04:32:40;26.95;;;15.07;;
36009;SDS011;22076;52.182;5.404;2023-06-22T04:35:12;18.52;;;12.20;;
36009;SDS011;22076;52.182;5.404;2023-06-22T04:37:41;20.92;;;13.18;;
36009;SDS011;22076;52.182;5.404;2023-06-22T04:40:09;26.77;;;16.30;;
36009;SDS011;22076;52.182;5.404;2023-06-22T04:42:39;16.88;;;12.48;;
36009;SDS011;22076;52.182;5.404;2023-06-22T04:45:08;14.98;;;9.88;;
36009;SDS011;22076;52.182;5.404;2023-06-22T04:47:35;16.42;;;11.75;;
36009;SDS011;22076;52.182;5.404;2023-06-22T04:50:05;17.45;;;11.55;;
36009;SDS011;22076;52.182;5.404;2023-06-22T04:52:33;18.85;;;13.73;;
36009;SDS011;22076;52.182;5.404;2023-06-22T04:55:03;22.13;;;14.93;;
36009;SDS011;22076;52.182;5.404;2023-06-22T04:57:31;24.60;;;15.98;;
36009;SDS011;22076;52.182;5.404;2023-06-22T04:59:58;29.20;;;19.27;;
36009;SDS011;22076;52.182;5.404;2023-06-22T05:02:37;22.05;;;16.08;;
36009;SDS011;22076;52.182;5.404;2023-06-22T05:05:04;26.73;;;17.20;;
36009;SDS011;22076;52.182;5.404;2023-06-22T05:07:32;27.33;;;16.80;;
36009;SDS011;22076;52.182;5.404;2023-06-22T05:09:58;30.55;;;20.00;;
36009;SDS011;22076;52.182;5.404;2023-06-22T05:12:25;36.67;;;23.05;;
36009;SDS011;22076;52.182;5.404;2023-06-22T05:14:55;32.70;;;20.65;;
36009;SDS011;22076;52.182;5.404;2023-06-22T05:17:21;25.88;;;18.65;;
36009;SDS011;22076;52.182;5.404;2023-06-22T05:19:48;34.78;;;21.90;;
36009;SDS011;22076;52.182;5.404;2023-06-22T05:22:15;39.45;;;23.52;;
36009;SDS011;22076;52.182;5.404;2023-06-22T05:24:42;33.30;;;22.50;;
36009;SDS011;22076;52.182;5.404;2023-06-22T05:27:09;34.33;;;22.83;;
36009;SDS011;22076;52.182;5.404;2023-06-22T05:29:35;35.88;;;25.05;;
36009;SDS011;22076;52.182;5.404;2023-06-22T05:32:04;32.85;;;20.75;;
36009;SDS011;22076;52.182;5.404;2023-06-22T05:34:31;38.83;;;24.35;;
36009;SDS011;22076;52.182;5.404;2023-06-22T05:36:58;29.75;;;18.95;;
36009;SDS011;22076;52.182;5.404;2023-06-22T05:39:25;35.53;;;21.63;;
36009;SDS011;22076;52.182;5.404;2023-06-22T05:41:51;48.05;;;29.23;;
36009;SDS011;22076;52.182;5.404;2023-06-22T05:44:18;53.20;;;33.33;;
36009;SDS011;22076;52.182;5.404;2023-06-22T05:46:45;31.75;;;20.70;;
36009;SDS011;22076;52.182;5.404;2023-06-22T05:49:14;35.75;;;22.17;;
36009;SDS011;22076;52.182;5.404;2023-06-22T05:51:41;44.00;;;29.13;;
36009;SDS011;22076;52.182;5.404;2023-06-22T05:54:08;27.10;;;19.17;;
36009;SDS011;22076;52.182;5.404;2023-06-22T05:56:35;32.88;;;22.10;;
36009;SDS011;22076;52.182;5.404;2023-06-22T05:59:02;44.05;;;29.20;;
36009;SDS011;22076;52.182;5.404;2023-06-22T06:01:28;45.38;;;32.17;;
36009;SDS011;22076;52.182;5.404;2023-06-22T06:03:59;47.70;;;32.17;;
36009;SDS011;22076;52.182;5.404;2023-06-22T06:06:27;33.33;;;19.73;;
36009;SDS011;22076;52.182;5.404;2023-06-22T06:08:54;31.58;;;21.23;;
36009;SDS011;22076;52.182;5.404;2023-06-22T06:11:21;36.90;;;23.30;;
36009;SDS011;22076;52.182;5.404;2023-06-22T06:13:48;39.67;;;26.40;;
36009;SDS011;22076;52.182;5.404;2023-06-22T06:16:14;40.20;;;27.65;;
36009;SDS011;22076;52.182;5.404;2023-06-22T06:18:41;36.05;;;24.85;;
36009;SDS011;22076;52.182;5.404;2023-06-22T06:21:08;47.50;;;30.65;;
36009;SDS011;22076;52.182;5.404;2023-06-22T06:23:35;30.98;;;18.98;;
36009;SDS011;22076;52.182;5.404;2023-06-22T06:26:02;36.78;;;23.80;;
36009;SDS011;22076;52.182;5.404;2023-06-22T06:28:32;33.47;;;22.77;;
36009;SDS011;22076;52.182;5.404;2023-06-22T06:30:59;34.60;;;20.50;;
36009;SDS011;22076;52.182;5.404;2023-06-22T06:33:26;33.15;;;22.13;;
36009;SDS011;22076;52.182;5.404;2023-06-22T06:35:53;32.28;;;22.45;;
36009;SDS011;22076;52.182;5.404;2023-06-22T06:38:20;30.52;;;19.60;;
36009;SDS011;22076;52.182;5.404;2023-06-22T06:40:49;35.10;;;23.13;;
36009;SDS011;22076;52.182;5.404;2023-06-22T06:43:21;34.97;;;22.85;;
36009;SDS011;22076;52.182;5.404;2023-06-22T06:45:48;34.45;;;22.17;;
36009;SDS011;22076;52.182;5.404;2023-06-22T06:48:15;46.40;;;31.52;;
36009;SDS011;22076;52.182;5.404;2023-06-22T06:50:42;36.80;;;24.42;;
36009;SDS011;22076;52.182;5.404;2023-06-22T06:53:09;34.10;;;22.27;;
36009;SDS011;22076;52.182;5.404;2023-06-22T06:55:36;40.85;;;25.38;;
36009;SDS011;22076;52.182;5.404;2023-06-22T06:58:04;28.90;;;21.65;;
36009;SDS011;22076;52.182;5.404;2023-06-22T07:00:32;37.38;;;25.88;;
36009;SDS011;22076;52.182;5.404;2023-06-22T07:03:00;27.35;;;18.95;;
36009;SDS011;22076;52.182;5.404;2023-06-22T07:05:27;38.28;;;26.70;;
36009;SDS011;22076;52.182;5.404;2023-06-22T07:07:56;30.70;;;21.27;;
36009;SDS011;22076;52.182;5.404;2023-06-22T07:10:22;36.80;;;25.42;;
36009;SDS011;22076;52.182;5.404;2023-06-22T07:12:49;34.92;;;23.08;;
36009;SDS011;22076;52.182;5.404;2023-06-22T07:15:17;31.42;;;21.35;;
36009;SDS011;22076;52.182;5.404;2023-06-22T07:17:44;24.35;;;16.70;;
36009;SDS011;22076;52.182;5.404;2023-06-22T07:20:11;31.88;;;23.45;;
36009;SDS011;22076;52.182;5.404;2023-06-22T07:22:44;18.05;;;14.00;;
36009;SDS011;22076;52.182;5.404;2023-06-22T07:27:43;31.25;;;22.45;;
36009;SDS011;22076;52.182;5.404;2023-06-22T07:30:11;32.95;;;20.40;;
36009;SDS011;22076;52.182;5.404;2023-06-22T07:32:41;28.77;;;21.85;;
36009;SDS011;22076;52.182;5.404;2023-06-22T07:35:08;24.30;;;17.40;;
36009;SDS011;22076;52.182;5.404;2023-06-22T07:37:41;10.95;;;8.60;;
36009;SDS011;22076;52.182;5.404;2023-06-22T07:40:09;13.55;;;9.68;;
36009;SDS011;22076;52.182;5.404;2023-06-22T07:42:38;25.20;;;17.88;;
36009;SDS011;22076;52.182;5.404;2023-06-22T07:45:05;15.38;;;10.07;;
36009;SDS011;22076;52.182;5.404;2023-06-22T07:47:33;26.15;;;15.88;;
36009;SDS011;22076;52.182;5.404;2023-06-22T07:50:01;15.75;;;10.63;;
36009;SDS011;22076;52.182;5.404;2023-06-22T07:52:29;27.20;;;18.27;;
36009;SDS011;22076;52.182;5.404;2023-06-22T07:54:56;15.27;;;8.88;;
36009;SDS011;22076;52.182;5.404;2023-06-22T07:57:22;12.75;;;8.80;;
36009;SDS011;22076;52.182;5.404;2023-06-22T07:59:57;20.38;;;13.50;;
36009;SDS011;22076;52.182;5.404;2023-06-22T08:02:24;18.35;;;12.60;;
36009;SDS011;22076;52.182;5.404;2023-06-22T08:04:50;12.95;;;7.82;;
36009;SDS011;22076;52.182;5.404;2023-06-22T08:07:18;14.05;;;10.50;;
36009;SDS011;22076;52.182;5.404;2023-06-22T08:09:46;14.77;;;8.68;;
36009;SDS011;22076;52.182;5.404;2023-06-22T08:12:14;20.45;;;12.57;;
36009;SDS011;22076;52.182;5.404;2023-06-22T08:14:41;13.05;;;8.77;;
36009;SDS011;22076;52.182;5.404;2023-06-22T08:17:08;13.38;;;9.98;;
36009;SDS011;22076;52.182;5.404;2023-06-22T08:19:36;20.33;;;14.57;;
36009;SDS011;22076;52.182;5.404;2023-06-22T08:22:03;18.05;;;12.65;;
36009;SDS011;22076;52.182;5.404;2023-06-22T08:24:31;9.13;;;6.93;;
36009;SDS011;22076;52.182;5.404;2023-06-22T08:26:58;9.63;;;6.70;;
36009;SDS011;22076;52.182;5.404;2023-06-22T08:29:25;13.25;;;9.13;;
36009;SDS011;22076;52.182;5.404;2023-06-22T08:31:52;13.23;;;8.43;;
36009;SDS011;22076;52.182;5.404;2023-06-22T08:34:18;16.88;;;10.55;;
36009;SDS011;22076;52.182;5.404;2023-06-22T08:36:48;15.52;;;11.32;;
36009;SDS011;22076;52.182;5.404;2023-06-22T08:39:18;13.18;;;10.35;;
36009;SDS011;22076;52.182;5.404;2023-06-22T08:41:47;13.32;;;9.05;;
36009;SDS011;22076;52.182;5.404;2023-06-22T08:44:13;11.98;;;7.70;;
36009;SDS011;22076;52.182;5.404;2023-06-22T08:46:41;9.90;;;6.32;;
36009;SDS011;22076;52.182;5.404;2023-06-22T08:49:08;10.73;;;7.22;;
36009;SDS011;22076;52.182;5.404;2023-06-22T08:51:35;10.18;;;6.95;;
36009;SDS011;22076;52.182;5.404;2023-06-22T08:54:02;7.82;;;5.60;;
36009;SDS011;22076;52.182;5.404;2023-06-22T08:56:30;10.88;;;8.52;;
36009;SDS011;22076;52.182;5.404;2023-06-22T08:58:58;8.48;;;6.20;;
36009;SDS011;22076;52.182;5.404;2023-06-22T09:01:25;10.32;;;7.20;;
36009;SDS011;22076;52.182;5.404;2023-06-22T09:03:53;6.00;;;3.92;;
36009;SDS011;22076;52.182;5.404;2023-06-22T09:06:23;8.40;;;5.10;;
36009;SDS011;22076;52.182;5.404;2023-06-22T09:08:50;9.50;;;5.63;;
36009;SDS011;22076;52.182;5.404;2023-06-22T09:11:17;5.15;;;4.47;;
36009;SDS011;22076;52.182;5.404;2023-06-22T09:13:43;11.07;;;7.30;;
36009;SDS011;22076;52.182;5.404;2023-06-22T09:16:12;7.28;;;5.30;;
36009;SDS011;22076;52.182;5.404;2023-06-22T09:18:39;9.82;;;6.32;;
36009;SDS011;22076;52.182;5.404;2023-06-22T09:21:06;8.10;;;5.68;;
36009;SDS011;22076;52.182;5.404;2023-06-22T09:23:32;8.13;;;4.10;;
36009;SDS011;22076;52.182;5.404;2023-06-22T09:25:59;6.00;;;3.97;;
36009;SDS011;22076;52.182;5.404;2023-06-22T09:28:25;9.35;;;5.93;;
36009;SDS011;22076;52.182;5.404;2023-06-22T09:30:52;9.10;;;5.32;;
36009;SDS011;22076;52.182;5.404;2023-06-22T09:33:25;5.40;;;4.45;;
36009;SDS011;22076;52.182;5.404;2023-06-22T09:35:52;7.90;;;4.82;;
36009;SDS011;22076;52.182;5.404;2023-06-22T09:38:19;6.25;;;4.47;;
36009;SDS011;22076;52.182;5.404;2023-06-22T09:40:46;8.25;;;5.22;;
36009;SDS011;22076;52.182;5.404;2023-06-22T09:43:12;7.70;;;4.43;;
36009;SDS011;22076;52.182;5.404;2023-06-22T09:45:40;6.30;;;4.78;;
36009;SDS011;22076;52.182;5.404;2023-06-22T09:48:06;6.78;;;4.72;;
36009;SDS011;22076;52.182;5.404;2023-06-22T09:50:36;5.03;;;3.85;;
36009;SDS011;22076;52.182;5.404;2023-06-22T09:53:02;6.60;;;4.90;;
36009;SDS011;22076;52.182;5.404;2023-06-22T09:55:29;9.70;;;5.53;;
36009;SDS011;22076;52.182;5.404;2023-06-22T09:57:56;5.95;;;4.30;;
36009;SDS011;22076;52.182;5.404;2023-06-22T10:00:22;6.45;;;4.32;;
36009;SDS011;22076;52.182;5.404;2023-06-22T10:02:49;5.47;;;3.95;;
36009;SDS011;22076;52.182;5.404;2023-06-22T10:05:16;7.78;;;5.32;;
36009;SDS011;22076;52.182;5.404;2023-06-22T10:07:44;10.00;;;7.63;;
36009;SDS011;22076;52.182;5.404;2023-06-22T10:10:11;9.48;;;7.13;;
36009;SDS011;22076;52.182;5.404;2023-06-22T10:12:40;10.82;;;7.07;;
36009;SDS011;22076;52.182;5.404;2023-06-22T10:15:09;9.82;;;6.95;;
36009;SDS011;22076;52.182;5.404;2023-06-22T10:17:36;10.80;;;8.77;;
36009;SDS011;22076;52.182;5.404;2023-06-22T10:20:04;10.68;;;8.52;;
36009;SDS011;22076;52.182;5.404;2023-06-22T10:22:38;12.23;;;7.78;;
36009;SDS011;22076;52.182;5.404;2023-06-22T10:25:07;13.05;;;8.90;;
36009;SDS011;22076;52.182;5.404;2023-06-22T10:27:34;12.90;;;8.48;;
36009;SDS011;22076;52.182;5.404;2023-06-22T10:30:01;10.50;;;8.60;;
36009;SDS011;22076;52.182;5.404;2023-06-22T10:32:30;16.52;;;11.15;;
36009;SDS011;22076;52.182;5.404;2023-06-22T10:34:56;14.93;;;11.00;;
36009;SDS011;22076;52.182;5.404;2023-06-22T10:37:23;16.52;;;12.05;;
36009;SDS011;22076;52.182;5.404;2023-06-22T10:39:50;13.07;;;10.13;;
36009;SDS011;22076;52.182;5.404;2023-06-22T10:42:18;14.50;;;10.93;;
36009;SDS011;22076;52.182;5.404;2023-06-22T10:44:44;16.95;;;12.85;;
36009;SDS011;22076;52.182;5.404;2023-06-22T10:47:11;15.88;;;9.88;;
36009;SDS011;22076;52.182;5.404;2023-06-22T10:49:39;14.77;;;10.40;;
36009;SDS011;22076;52.182;5.404;2023-06-22T10:52:07;14.05;;;9.38;;
36009;SDS011;22076;52.182;5.404;2023-06-22T10:54:35;12.02;;;9.52;;
36009;SDS011;22076;52.182;5.404;2023-06-22T10:57:03;12.35;;;8.80;;
36009;SDS011;22076;52.182;5.404;2023-06-22T10:59:32;14.57;;;9.45;;
36009;SDS011;22076;52.182;5.404;2023-06-22T11:01:58;11.95;;;9.05;;
36009;SDS011;22076;52.182;5.404;2023-06-22T11:04:25;22.25;;;10.25;;
36009;SDS011;22076;52.182;5.404;2023-06-22T11:06:52;13.77;;;10.63;;
36009;SDS011;22076;52.182;5.404;2023-06-22T11:09:18;9.32;;;7.50;;
36009;SDS011;22076;52.182;5.404;2023-06-22T11:11:46;13.85;;;8.98;;
36009;SDS011;22076;52.182;5.404;2023-06-22T11:14:13;16.63;;;12.20;;
36009;SDS011;22076;52.182;5.404;2023-06-22T11:16:43;19.75;;;12.30;;
36009;SDS011;22076;52.182;5.404;2023-06-22T11:19:11;18.17;;;13.13;;
36009;SDS011;22076;52.182;5.404;2023-06-22T11:21:39;14.52;;;11.18;;
36009;SDS011;22076;52.182;5.404;2023-06-22T11:24:10;17.70;;;12.38;;
36009;SDS011;22076;52.182;5.404;2023-06-22T11:26:37;14.25;;;11.13;;
36009;SDS011;22076;52.182;5.404;2023-06-22T11:29:03;14.15;;;10.88;;
36009;SDS011;22076;52.182;5.404;2023-06-22T11:31:32;13.02;;;10.55;;
36009;SDS011;22076;52.182;5.404;2023-06-22T11:34:00;12.73;;;9.57;;
36009;SDS011;22076;52.182;5.404;2023-06-22T11:36:27;12.75;;;8.95;;
36009;SDS011;22076;52.182;5.404;2023-06-22T11:38:54;10.18;;;7.57;;
36009;SDS011;22076;52.182;5.404;2023-06-22T11:41:20;13.35;;;9.50;;
36009;SDS011;22076;52.182;5.404;2023-06-22T11:43:47;13.20;;;10.88;;
36009;SDS011;22076;52.182;5.404;2023-06-22T11:46:14;16.75;;;10.70;;
36009;SDS011;22076;52.182;5.404;2023-06-22T11:48:40;16.20;;;11.00;;
36009;SDS011;22076;52.182;5.404;2023-06-22T11:51:08;13.88;;;8.65;;
36009;SDS011;22076;52.182;5.404;2023-06-22T11:53:35;15.13;;;11.20;;
36009;SDS011;22076;52.182;5.404;2023-06-22T11:56:03;14.40;;;10.20;;
36009;SDS011;22076;52.182;5.404;2023-06-22T11:58:29;13.73;;;9.70;;
36009;SDS011;22076;52.182;5.404;2023-06-22T12:00:56;13.23;;;9.48;;
36009;SDS011;22076;52.182;5.404;2023-06-22T12:03:23;11.60;;;9.18;;
36009;SDS011;22076;52.182;5.404;2023-06-22T12:05:50;13.98;;;10.23;;
36009;SDS011;22076;52.182;5.404;2023-06-22T12:08:18;14.27;;;9.20;;
36009;SDS011;22076;52.182;5.404;2023-06-22T12:10:57;11.85;;;8.32;;
36009;SDS011;22076;52.182;5.404;2023-06-22T12:13:24;19.15;;;9.38;;
36009;SDS011;22076;52.182;5.404;2023-06-22T12:15:50;15.45;;;9.73;;
36009;SDS011;22076;52.182;5.404;2023-06-22T12:18:17;13.48;;;9.50;;
36009;SDS011;22076;52.182;5.404;2023-06-22T12:20:46;10.90;;;8.07;;
36009;SDS011;22076;52.182;5.404;2023-06-22T12:23:14;10.70;;;7.90;;
36009;SDS011;22076;52.182;5.404;2023-06-22T12:25:42;12.98;;;8.27;;
36009;SDS011;22076;52.182;5.404;2023-06-22T12:28:10;14.05;;;9.30;;
36009;SDS011;22076;52.182;5.404;2023-06-22T12:30:37;12.48;;;7.95;;
36009;SDS011;22076;52.182;5.404;2023-06-22T12:33:05;15.02;;;8.75;;
36009;SDS011;22076;52.182;5.404;2023-06-22T12:35:31;11.23;;;8.35;;
36009;SDS011;22076;52.182;5.404;2023-06-22T12:37:58;12.93;;;8.63;;
36009;SDS011;22076;52.182;5.404;2023-06-22T12:40:24;13.82;;;8.57;;
36009;SDS011;22076;52.182;5.404;2023-06-22T12:42:52;11.20;;;7.53;;
36009;SDS011;22076;52.182;5.404;2023-06-22T12:45:19;14.13;;;9.40;;
36009;SDS011;22076;52.182;5.404;2023-06-22T12:47:46;11.88;;;7.82;;
36009;SDS011;22076;52.182;5.404;2023-06-22T12:50:15;16.70;;;8.68;;
36009;SDS011;22076;52.182;5.404;2023-06-22T12:52:42;11.80;;;9.35;;
36009;SDS011;22076;52.182;5.404;2023-06-22T12:55:09;11.23;;;8.30;;
36009;SDS011;22076;52.182;5.404;2023-06-22T12:57:36;12.98;;;8.60;;
36009;SDS011;22076;52.182;5.404;2023-06-22T13:00:08;10.95;;;8.05;;
36009;SDS011;22076;52.182;5.404;2023-06-22T13:02:36;11.68;;;8.95;;
36009;SDS011;22076;52.182;5.404;2023-06-22T13:05:03;11.30;;;8.18;;
36009;SDS011;22076;52.182;5.404;2023-06-22T13:07:31;10.80;;;7.63;;
36009;SDS011;22076;52.182;5.404;2023-06-22T13:09:57;13.02;;;9.02;;
36009;SDS011;22076;52.182;5.404;2023-06-22T13:12:24;8.50;;;7.00;;
36009;SDS011;22076;52.182;5.404;2023-06-22T13:14:50;11.90;;;8.40;;
36009;SDS011;22076;52.182;5.404;2023-06-22T13:17:19;9.32;;;7.38;;
36009;SDS011;22076;52.182;5.404;2023-06-22T13:19:47;10.18;;;7.30;;
36009;SDS011;22076;52.182;5.404;2023-06-22T13:22:28;18.20;;;11.20;;
36009;SDS011;22076;52.182;5.404;2023-06-22T13:24:55;12.60;;;9.52;;
36009;SDS011;22076;52.182;5.404;2023-06-22T13:27:22;14.75;;;11.90;;
36009;SDS011;22076;52.182;5.404;2023-06-22T13:29:50;13.43;;;9.75;;
36009;SDS011;22076;52.182;5.404;2023-06-22T13:32:18;12.73;;;10.45;;
36009;SDS011;22076;52.182;5.404;2023-06-22T13:34:45;12.73;;;10.20;;
36009;SDS011;22076;52.182;5.404;2023-06-22T13:37:12;16.20;;;10.77;;
36009;SDS011;22076;52.182;5.404;2023-06-22T13:39:39;16.35;;;10.52;;
36009;SDS011;22076;52.182;5.404;2023-06-22T13:42:06;11.85;;;9.18;;
36009;SDS011;22076;52.182;5.404;2023-06-22T13:44:33;16.20;;;10.93;;
36009;SDS011;22076;52.182;5.404;2023-06-22T13:47:00;15.70;;;10.40;;
36009;SDS011;22076;52.182;5.404;2023-06-22T13:49:28;13.30;;;9.63;;
36009;SDS011;22076;52.182;5.404;2023-06-22T13:51:55;13.75;;;10.02;;
36009;SDS011;22076;52.182;5.404;2023-06-22T13:54:21;15.38;;;11.77;;
36009;SDS011;22076;52.182;5.404;2023-06-22T13:56:48;15.95;;;10.93;;
36009;SDS011;22076;52.182;5.404;2023-06-22T13:59:15;13.43;;;11.45;;
36009;SDS011;22076;52.182;5.404;2023-06-22T14:01:41;15.25;;;11.30;;
36009;SDS011;22076;52.182;5.404;2023-06-22T14:04:08;14.05;;;11.65;;
36009;SDS011;22076;52.182;5.404;2023-06-22T14:06:37;15.82;;;11.48;;
36009;SDS011;22076;52.182;5.404;2023-06-22T14:09:04;13.20;;;10.82;;
36009;SDS011;22076;52.182;5.404;2023-06-22T14:11:30;14.85;;;11.13;;
36009;SDS011;22076;52.182;5.404;2023-06-22T14:13:57;16.15;;;11.88;;
36009;SDS011;22076;52.182;5.404;2023-06-22T14:16:26;12.25;;;9.13;;
36009;SDS011;22076;52.182;5.404;2023-06-22T14:18:52;13.70;;;11.23;;
36009;SDS011;22076;52.182;5.404;2023-06-22T14:21:19;22.15;;;12.02;;
36009;SDS011;22076;52.182;5.404;2023-06-22T14:23:48;14.18;;;10.65;;
36009;SDS011;22076;52.182;5.404;2023-06-22T14:26:15;17.10;;;12.43;;
36009;SDS011;22076;52.182;5.404;2023-06-22T14:28:43;16.40;;;11.35;;
36009;SDS011;22076;52.182;5.404;2023-06-22T14:31:13;16.92;;;12.95;;
36009;SDS011;22076;52.182;5.404;2023-06-22T14:33:43;17.73;;;13.05;;
36009;SDS011;22076;52.182;5.404;2023-06-22T14:36:11;16.40;;;10.77;;
36009;SDS011;22076;52.182;5.404;2023-06-22T14:38:38;13.80;;;10.63;;